Time,TemperatureF,DewpointF,PressureIn,WindDirection,WindDirectionDegrees,WindSpeedMPH,WindSpeedGustMPH,Humidity,HourlyPrecipIn,Conditions,Clouds,dailyrainin,SoftwareType,DateUTC
2013-10-05 00:00:00,46.3,42.6,30.13,SSW,201,0.0,15.0,87,0.00,,,0.00,Wunderground v.1.15,2013-10-05 03:00:00,
2013-10-05 00:05:00,46.3,42.6,30.13,SSW,202,0.0,15.0,87,0.00,,,0.00,Wunderground v.1.15,2013-10-05 03:05:00,
2013-10-05 00:10:00,46.3,42.3,30.13,South,174,0.0,15.0,86,0.00,,,0.00,Wunderground v.1.15,2013-10-05 03:10:00,
2013-10-05 00:15:00,46.3,42.3,30.13,WSW,239,0.0,15.0,86,0.00,,,0.00,Wunderground v.1.15,2013-10-05 03:15:00,
2013-10-05 00:20:00,46.8,42.8,30.13,NW,315,0.0,15.0,86,0.00,,,0.00,Wunderground v.1.15,2013-10-05 03:20:00,
2013-10-05 00:25:00,47.0,42.7,30.13,NW,314,0.0,15.0,85,0.00,,,0.00,Wunderground v.1.15,2013-10-05 03:25:00,
2013-10-05 00:35:00,46.9,42.3,30.13,NW,312,0.0,15.0,84,0.00,,,0.00,Wunderground v.1.15,2013-10-05 03:35:00,
2013-10-05 00:40:00,47.0,42.4,30.13,NW,312,0.0,15.0,84,0.00,,,0.00,Wunderground v.1.15,2013-10-05 03:40:00,
2013-10-05 00:45:00,47.1,42.5,30.13,NNW,332,0.0,15.0,84,0.00,,,0.00,Wunderground v.1.15,2013-10-05 03:45:00,
2013-10-05 00:50:00,47.5,43.2,30.13,WNW,290,0.0,15.0,85,0.00,,,0.00,Wunderground v.1.15,2013-10-05 03:50:00,
2013-10-05 00:55:00,48.1,43.2,30.13,NNW,345,0.0,15.0,83,0.00,,,0.00,Wunderground v.1.15,2013-10-05 03:55:00,
2013-10-05 01:05:00,48.4,42.8,30.13,ESE,108,0.0,15.0,81,0.00,,,0.00,Wunderground v.1.15,2013-10-05 04:05:00,
2013-10-05 01:10:00,48.4,42.8,30.13,North,349,0.0,15.0,81,0.00,,,0.00,Wunderground v.1.15,2013-10-05 04:10:00,
2013-10-05 01:15:00,48.7,42.8,30.13,South,176,0.0,15.0,80,0.00,,,0.00,Wunderground v.1.15,2013-10-05 04:15:00,
2013-10-05 01:20:00,48.7,42.5,30.13,South,191,0.0,15.0,79,0.00,,,0.00,Wunderground v.1.15,2013-10-05 04:20:00,
2013-10-05 01:25:00,48.5,42.6,30.13,West,263,0.0,15.0,80,0.00,,,0.00,Wunderground v.1.15,2013-10-05 04:25:00,
2013-10-05 01:30:00,48.5,42.9,30.13,SSW,193,0.0,15.0,81,0.00,,,0.00,Wunderground v.1.15,2013-10-05 04:30:00,
2013-10-05 01:35:00,48.5,42.9,30.13,SSW,201,0.0,15.0,81,0.00,,,0.00,Wunderground v.1.15,2013-10-05 04:35:00,
2013-10-05 01:40:00,48.4,42.5,30.13,SSW,201,0.0,15.0,80,0.00,,,0.00,Wunderground v.1.15,2013-10-05 04:40:00,
2013-10-05 01:50:00,48.0,42.1,30.14,WSW,240,0.0,15.0,80,0.00,,,0.00,Wunderground v.1.15,2013-10-05 04:50:00,
2013-10-05 01:55:00,47.9,42.0,30.13,WNW,290,0.0,15.0,80,0.00,,,0.00,Wunderground v.1.15,2013-10-05 04:55:00,
2013-10-05 02:00:00,47.9,42.0,30.14,WNW,300,0.0,15.0,80,0.00,,,0.00,Wunderground v.1.15,2013-10-05 05:00:00,
2013-10-05 02:05:00,48.1,41.9,30.14,WNW,300,0.0,15.0,79,0.00,,,0.00,Wunderground v.1.15,2013-10-05 05:05:00,
2013-10-05 02:10:00,47.8,41.6,30.14,WNW,300,0.0,15.0,79,0.00,,,0.00,Wunderground v.1.15,2013-10-05 05:10:00,
2013-10-05 02:15:00,47.3,41.4,30.14,WNW,299,0.0,15.0,80,0.00,,,0.00,Wunderground v.1.15,2013-10-05 05:15:00,
2013-10-05 02:20:00,46.8,41.0,30.14,WNW,299,0.0,15.0,80,0.00,,,0.00,Wunderground v.1.15,2013-10-05 05:20:00,
2013-10-05 02:25:00,46.3,41.1,30.14,WNW,300,0.0,15.0,82,0.00,,,0.00,Wunderground v.1.15,2013-10-05 05:25:00,
2013-10-05 02:30:00,45.7,40.8,30.14,WNW,299,0.0,15.0,83,0.00,,,0.00,Wunderground v.1.15,2013-10-05 05:30:00,
2013-10-05 02:40:00,45.1,40.6,30.14,SSW,210,0.0,15.0,84,0.00,,,0.00,Wunderground v.1.15,2013-10-05 05:40:00,
2013-10-05 02:45:00,44.6,40.1,30.14,SSW,210,0.0,15.0,84,0.00,,,0.00,Wunderground v.1.15,2013-10-05 05:45:00,
2013-10-05 02:50:00,44.5,40.6,30.14,SSW,210,0.0,15.0,86,0.00,,,0.00,Wunderground v.1.15,2013-10-05 05:50:00,
2013-10-05 02:55:00,44.3,40.4,30.14,SSW,210,0.0,15.0,86,0.00,,,0.00,Wunderground v.1.15,2013-10-05 05:55:00,
2013-10-05 03:00:00,44.4,40.8,30.14,SSW,210,0.0,15.0,87,0.00,,,0.00,Wunderground v.1.15,2013-10-05 06:00:00,
2013-10-05 03:05:00,44.4,40.8,30.14,SW,226,0.0,15.0,87,0.00,,,0.00,Wunderground v.1.15,2013-10-05 06:05:00,
2013-10-05 03:15:00,44.7,41.1,30.13,SW,225,0.0,15.0,87,0.00,,,0.00,Wunderground v.1.15,2013-10-05 06:15:00,
2013-10-05 03:20:00,44.9,41.3,30.14,SW,225,0.0,15.0,87,0.00,,,0.00,Wunderground v.1.15,2013-10-05 06:20:00,
2013-10-05 03:25:00,44.9,41.0,30.13,SW,225,0.0,15.0,86,0.00,,,0.00,Wunderground v.1.15,2013-10-05 06:25:00,
2013-10-05 03:30:00,44.8,40.9,30.13,SW,226,0.0,15.0,86,0.00,,,0.00,Wunderground v.1.15,2013-10-05 06:30:00,
2013-10-05 03:35:00,44.7,40.8,30.14,SW,226,0.0,15.0,86,0.00,,,0.00,Wunderground v.1.15,2013-10-05 06:35:00,
2013-10-05 03:45:00,44.0,40.1,30.14,SW,225,0.0,15.0,86,0.00,,,0.00,Wunderground v.1.15,2013-10-05 06:45:00,
2013-10-05 03:50:00,43.6,40.0,30.14,SW,225,0.0,15.0,87,0.00,,,0.00,Wunderground v.1.15,2013-10-05 06:50:00,
2013-10-05 03:55:00,43.4,40.1,30.14,SW,226,0.0,15.0,88,0.00,,,0.00,Wunderground v.1.15,2013-10-05 06:55:00,
2013-10-05 04:00:00,43.7,40.7,30.15,SW,236,1.0,15.0,89,0.00,,,0.00,Wunderground v.1.15,2013-10-05 07:00:00,
2013-10-05 04:05:00,44.1,40.8,30.15,South,187,2.0,15.0,88,0.00,,,0.00,Wunderground v.1.15,2013-10-05 07:05:00,
2013-10-05 04:10:00,44.1,40.5,30.15,SW,217,2.0,2.0,87,0.00,,,0.00,Wunderground v.1.15,2013-10-05 07:10:00,
2013-10-05 04:20:00,43.8,40.5,30.15,SSW,197,2.0,2.0,88,0.00,,,0.00,Wunderground v.1.15,2013-10-05 07:20:00,
2013-10-05 04:25:00,43.7,40.4,30.15,SW,215,1.0,15.0,88,0.00,,,0.00,Wunderground v.1.15,2013-10-05 07:25:00,
2013-10-05 04:30:00,43.6,40.3,30.16,SW,229,1.0,1.0,88,0.00,,,0.00,Wunderground v.1.15,2013-10-05 07:30:00,
2013-10-05 04:35:00,43.4,40.1,30.16,SW,229,1.0,15.0,88,0.00,,,0.00,Wunderground v.1.15,2013-10-05 07:35:00,
2013-10-05 04:40:00,43.2,40.2,30.16,SSW,202,1.0,1.0,89,0.00,,,0.00,Wunderground v.1.15,2013-10-05 07:40:00,
2013-10-05 04:55:00,42.8,40.1,30.16,SW,217,1.0,15.0,90,0.00,,,0.00,Wunderground v.1.15,2013-10-05 07:55:00,
2013-10-05 05:00:00,42.8,40.4,30.16,SW,217,0.0,15.0,91,0.00,,,0.00,Wunderground v.1.15,2013-10-05 08:00:00,
2013-10-05 05:05:00,42.5,40.1,30.16,SW,217,0.0,15.0,91,0.00,,,0.00,Wunderground v.1.15,2013-10-05 08:05:00,
2013-10-05 05:10:00,42.5,40.3,30.16,SW,218,0.0,15.0,92,0.00,,,0.00,Wunderground v.1.15,2013-10-05 08:10:00,
2013-10-05 05:15:00,42.6,40.4,30.16,SSW,207,1.0,15.0,92,0.00,,,0.00,Wunderground v.1.15,2013-10-05 08:15:00,
2013-10-05 05:20:00,42.8,40.9,30.16,SW,235,1.0,15.0,93,0.00,,,0.00,Wunderground v.1.15,2013-10-05 08:20:00,
2013-10-05 05:25:00,43.1,41.2,30.16,SW,215,1.0,15.0,93,0.00,,,0.00,Wunderground v.1.15,2013-10-05 08:25:00,
2013-10-05 05:30:00,43.3,41.4,30.16,SW,229,1.0,1.0,93,0.00,,,0.00,Wunderground v.1.15,2013-10-05 08:30:00,
2013-10-05 05:40:00,43.5,41.3,30.16,SW,217,1.0,15.0,92,0.00,,,0.00,Wunderground v.1.15,2013-10-05 08:40:00,
2013-10-05 05:45:00,43.6,41.4,30.16,SW,234,1.0,15.0,92,0.00,,,0.00,Wunderground v.1.15,2013-10-05 08:45:00,
2013-10-05 05:50:00,43.6,41.4,30.16,SW,214,2.0,2.0,92,0.00,,,0.00,Wunderground v.1.15,2013-10-05 08:50:00,
2013-10-05 05:55:00,43.5,41.3,30.16,SSW,212,1.0,15.0,92,0.00,,,0.00,Wunderground v.1.15,2013-10-05 08:55:00,
2013-10-05 06:00:00,43.6,41.7,30.16,SW,217,1.0,15.0,93,0.00,,,0.00,Wunderground v.1.15,2013-10-05 09:00:00,
2013-10-05 06:05:00,43.6,41.4,30.16,SSW,206,2.0,15.0,92,0.00,,,0.00,Wunderground v.1.15,2013-10-05 09:05:00,
2013-10-05 06:10:00,43.5,41.3,30.16,SW,235,1.0,15.0,92,0.00,,,0.00,Wunderground v.1.15,2013-10-05 09:10:00,
2013-10-05 06:20:00,43.1,40.9,30.16,SW,225,1.0,1.0,92,0.00,,,0.00,Wunderground v.1.15,2013-10-05 09:20:00,
2013-10-05 06:30:00,42.6,40.4,30.17,SW,219,1.0,15.0,92,0.00,,,0.00,Wunderground v.1.15,2013-10-05 09:30:00,
2013-10-05 06:35:00,42.6,40.7,30.17,SW,226,1.0,15.0,93,0.00,,,0.00,Wunderground v.1.15,2013-10-05 09:35:00,
2013-10-05 06:40:00,42.6,40.7,30.17,SSW,207,1.0,1.0,93,0.00,,,0.00,Wunderground v.1.15,2013-10-05 09:40:00,
2013-10-05 06:45:00,42.6,40.7,30.17,SW,218,1.0,2.0,93,0.00,,,0.00,Wunderground v.1.15,2013-10-05 09:45:00,
2013-10-05 06:50:00,42.7,41.1,30.17,SW,226,1.0,15.0,94,0.00,,,0.00,Wunderground v.1.15,2013-10-05 09:50:00,
2013-10-05 07:00:00,42.8,40.9,30.17,SSW,205,1.0,1.0,93,0.00,,,0.00,Wunderground v.1.15,2013-10-05 10:00:00,
2013-10-05 07:05:00,42.8,41.2,30.17,SW,221,1.0,15.0,94,0.00,,,0.00,Wunderground v.1.15,2013-10-05 10:05:00,
2013-10-05 07:10:00,42.9,41.3,30.17,SW,226,1.0,1.0,94,0.00,,,0.00,Wunderground v.1.15,2013-10-05 10:10:00,
2013-10-05 07:15:00,42.7,40.8,30.18,SW,214,1.0,15.0,93,0.00,,,0.00,Wunderground v.1.15,2013-10-05 10:15:00,
2013-10-05 07:20:00,42.5,40.6,30.17,SW,229,0.0,15.0,93,0.00,,,0.00,Wunderground v.1.15,2013-10-05 10:20:00,
2013-10-05 07:25:00,42.6,41.0,30.18,SW,221,0.0,15.0,94,0.00,,,0.00,Wunderground v.1.15,2013-10-05 10:25:00,